Time;durP1;ratioP1;P1;durP2;ratioP2;P2;SDS_P1;SDS_P2;PMS_P1;PMS_P2;Temp;Humidity;BMP_temperature;BMP_pressure;BME280_temperature;BME280_humidity;BME280_pressure;Samples;Min_cycle;Max_cycle;Signal;HPM_P1;HPM_P2
2023/03/30 00:01:10;;;;;;;0.00;0.00;;;;;;;9.77;100.00;99004.47;6263952;22;20015;-74
2023/03/30 00:03:37;;;;;;;0.00;0.00;;;;;;;9.89;100.00;99019.59;6244341;22;20397;-73
2023/03/30 00:06:07;;;;;;;0.00;0.00;;;;;;;9.85;100.00;99027.56;6238006;22;20015;-73
2023/03/30 00:08:33;;;;;;;0.00;0.00;;;;;;;9.79;100.00;99017.81;6242815;22;20002;-74
2023/03/30 00:11:00;;;;;;;0.00;0.00;;;;;;;9.79;100.00;99031.47;6240761;22;20490;-73
2023/03/30 00:13:29;;;;;;;0.00;0.00;;;;;;;9.69;100.00;99007.06;6268812;22;20085;-74
2023/03/30 00:15:54;;;;;;;0.00;0.00;;;;;;;9.62;100.00;99001.94;6244813;22;20007;-75
2023/03/30 00:18:24;;;;;;;0.00;0.00;;;;;;;9.45;100.00;98997.00;6237027;22;20012;-74
2023/03/30 00:20:51;;;;;;;0.00;0.00;;;;;;;9.29;100.00;98990.09;6269993;22;20482;-75
2023/03/30 00:23:17;;;;;;;0.00;0.00;;;;;;;9.03;100.00;98995.91;6243217;22;20010;-74
2023/03/30 00:25:43;;;;;;;0.00;0.00;;;;;;;8.98;100.00;99015.03;6220732;22;20004;-74
2023/03/30 00:28:09;;;;;;;0.00;0.00;;;;;;;8.95;100.00;99034.69;6269040;22;20031;-74
2023/03/30 00:30:35;;;;;;;0.00;0.00;;;;;;;8.86;100.00;99029.88;6247296;22;20069;-73
2023/03/30 00:33:01;;;;;;;0.00;0.00;;;;;;;8.65;100.00;99001.22;6246376;22;20000;-73
2023/03/30 00:35:29;;;;;;;0.00;0.00;;;;;;;8.60;100.00;99004.81;6270019;22;20304;-74
2023/03/30 00:37:55;;;;;;;0.00;0.00;;;;;;;8.62;100.00;99013.50;6246077;22;20006;-75
2023/03/30 00:40:22;;;;;;;0.00;0.00;;;;;;;8.55;100.00;99013.81;6192692;22;20008;-74
2023/03/30 00:42:51;;;;;;;0.00;0.00;;;;;;;8.55;100.00;99035.63;6246170;22;20434;-74
2023/03/30 00:45:19;;;;;;;0.10;0.10;;;;;;;8.50;100.00;99038.41;6223687;22;20709;-74
2023/03/30 00:47:51;;;;;;;0.00;0.00;;;;;;;8.51;100.00;99050.94;6240569;22;20010;-75
2023/03/30 00:50:20;;;;;;;0.10;0.10;;;;;;;8.63;100.00;99049.72;6247143;22;20000;-74
2023/03/30 00:52:59;;;;;;;0.00;0.00;;;;;;;8.72;100.00;99042.56;6242499;22;20003;-73
2023/03/30 00:55:28;;;;;;;0.00;0.00;;;;;;;8.72;100.00;99028.94;6245372;22;20007;-74
2023/03/30 00:57:59;;;;;;;0.05;0.05;;;;;;;8.82;100.00;99028.84;6243702;22;20021;-73
2023/03/30 01:00:25;;;;;;;0.00;0.00;;;;;;;8.91;100.00;99046.19;6246777;22;19996;-74
2023/03/30 01:02:57;;;;;;;0.00;0.00;;;;;;;8.86;100.00;99035.34;6240709;22;20027;-74
2023/03/30 01:05:27;;;;;;;0.00;0.00;;;;;;;8.90;100.00;99030.13;6273203;22;20631;-74
2023/03/30 01:07:53;;;;;;;0.00;0.00;;;;;;;8.98;100.00;99031.38;6270867;22;20008;-74
2023/03/30 01:10:20;;;;;;;0.00;0.00;;;;;;;9.07;100.00;99055.00;6245711;22;20008;-74
2023/03/30 01:12:46;;;;;;;0.00;0.00;;;;;;;9.06;100.00;99056.09;6266235;22;20019;-74
2023/03/30 01:15:15;;;;;;;0.00;0.00;;;;;;;9.01;100.00;99058.91;6242445;22;20404;-73
2023/03/30 01:18:06;;;;;;;0.00;0.00;;;;;;;8.87;100.00;99050.56;6243181;22;20069;-74
2023/03/30 01:20:46;;;;;;;0.10;0.10;;;;;;;9.02;100.00;99065.16;6254612;22;20003;-74
2023/03/30 01:23:46;;;;;;;0.00;0.00;;;;;;;9.03;100.00;99061.34;6267132;22;20026;-74
2023/03/30 01:26:33;;;;;;;0.00;0.00;;;;;;;9.23;100.00;99077.47;6176902;23;20037;-73
2023/03/30 01:29:24;;;;;;;0.00;0.00;;;;;;;9.30;100.00;99081.75;6270190;22;20000;-73
2023/03/30 01:32:14;;;;;;;0.10;0.10;;;;;;;9.34;100.00;99071.91;6270293;22;19995;-76
2023/03/30 01:34:56;;;;;;;0.00;0.00;;;;;;;9.40;100.00;99081.66;6245422;22;20438;-76
2023/03/30 01:37:40;;;;;;;0.00;0.00;;;;;;;9.37;100.00;99072.13;6243661;22;20018;-77
2023/03/30 01:40:17;;;;;;;0.00;0.00;;;;;;;9.47;100.00;99086.75;6243929;22;20058;-76
2023/03/30 01:42:43;;;;;;;0.00;0.00;;;;;;;9.50;100.00;99089.69;6241482;22;20003;-77
2023/03/30 01:45:31;;;;;;;0.00;0.00;;;;;;;9.39;100.00;99072.66;6272323;22;20010;-76
2023/03/30 01:48:28;;;;;;;0.00;0.00;;;;;;;9.56;100.00;99091.28;6242613;22;20016;-76
2023/03/30 01:51:01;;;;;;;0.00;0.00;;;;;;;9.55;100.00;99097.84;6241912;22;20076;-76
2023/03/30 01:53:26;;;;;;;0.00;0.00;;;;;;;9.60;100.00;99094.22;6273193;22;20071;-76
2023/03/30 01:55:58;;;;;;;0.00;0.00;;;;;;;9.56;100.00;99088.56;6268751;22;20046;-76
2023/03/30 01:58:34;;;;;;;0.00;0.00;;;;;;;9.58;100.00;99089.06;6245231;22;20457;-75
2023/03/30 02:01:03;;;;;;;0.00;0.00;;;;;;;9.53;100.00;99086.38;6240011;22;20054;-76
2023/03/30 02:03:35;;;;;;;0.00;0.00;;;;;;;9.54;100.00;99081.75;6245769;22;20410;-76
2023/03/30 02:06:08;;;;;;;0.00;0.00;;;;;;;9.56;100.00;99104.94;6240944;22;20011;-76
2023/03/30 02:08:35;;;;;;;0.00;0.00;;;;;;;9.47;100.00;99076.66;6245799;22;19992;-76
2023/03/30 02:11:01;;;;;;;0.00;0.00;;;;;;;9.51;100.00;99088.59;6216803;22;20327;-77
2023/03/30 02:13:49;;;;;;;0.00;0.00;;;;;;;9.49;100.00;99082.66;6244920;22;20016;-76
2023/03/30 02:16:21;;;;;;;0.00;0.00;;;;;;;9.48;100.00;99078.28;6246000;22;20434;-76
2023/03/30 02:18:46;;;;;;;0.00;0.00;;;;;;;9.45;100.00;99078.88;6247513;22;20311;-76
2023/03/30 02:21:14;;;;;;;0.00;0.00;;;;;;;9.45;100.00;99081.59;6244303;22;20034;-76
2023/03/30 02:23:44;;;;;;;0.00;0.00;;;;;;;9.41;100.00;99075.09;6245922;22;20023;-76
2023/03/30 02:26:10;;;;;;;0.00;0.00;;;;;;;9.38;100.00;99072.94;6244979;22;20007;-76
2023/03/30 02:28:37;;;;;;;0.00;0.00;;;;;;;9.38;100.00;99084.66;6239625;22;20007;-76
2023/03/30 02:31:07;;;;;;;0.00;0.00;;;;;;;9.44;100.00;99088.16;6219336;22;20007;-76
2023/03/30 02:34:07;;;;;;;0.00;0.00;;;;;;;9.37;100.00;99065.84;6215925;22;20351;-76
2023/03/30 02:36:38;;;;;;;0.00;0.00;;;;;;;9.39;100.00;99071.84;6241413;22;20082;-76
2023/03/30 02:39:24;;;;;;;0.00;0.00;;;;;;;9.08;100.00;99058.53;6243277;22;20015;-75
2023/03/30 02:42:21;;;;;;;0.00;0.00;;;;;;;8.95;100.00;99075.59;6247898;22;20007;-77
2023/03/30 02:44:50;;;;;;;0.00;0.00;;;;;;;8.81;100.00;99081.72;6244565;22;20026;-76
2023/03/30 02:47:24;;;;;;;0.00;0.00;;;;;;;8.73;100.00;99065.97;6240751;22;20315;-76
2023/03/30 02:49:59;;;;;;;0.00;0.00;;;;;;;8.62;100.00;99072.63;6272693;22;20445;-76
2023/03/30 02:52:36;;;;;;;;;;;;;;;8.55;100.00;99084.66;6267369;22;20074;-77
2023/03/30 02:55:12;;;;;;;0.00;0.00;;;;;;;8.44;100.00;99077.69;6271282;22;19903;-75
2023/03/30 02:58:07;;;;;;;0.10;0.10;;;;;;;8.43;100.00;99075.22;6240656;22;20331;-76
2023/03/30 03:00:36;;;;;;;0.00;0.00;;;;;;;8.39;100.00;99077.69;6249860;22;20008;-77
2023/03/30 03:03:08;;;;;;;0.00;0.00;;;;;;;8.30;100.00;99073.97;6250890;22;20026;-76
2023/03/30 03:05:34;;;;;;;0.00;0.00;;;;;;;8.25;100.00;99079.41;6278028;22;20024;-77
2023/03/30 03:08:00;;;;;;;0.00;0.00;;;;;;;8.20;100.00;99064.75;6223942;22;20050;-76
2023/03/30 03:10:26;;;;;;;0.10;0.10;;;;;;;8.25;100.00;99068.53;6249304;22;20145;-77
2023/03/30 03:12:52;;;;;;;0.00;0.00;;;;;;;8.21;100.00;99071.81;6217080;22;20991;-77
2023/03/30 03:15:17;;;;;;;0.00;0.00;;;;;;;8.17;100.00;99078.94;6219980;22;20020;-77
2023/03/30 03:17:44;;;;;;;0.00;0.00;;;;;;;8.07;100.00;99072.75;6216123;22;20007;-77
2023/03/30 03:20:12;;;;;;;0.00;0.00;;;;;;;8.11;100.00;99090.97;6217652;22;20012;-77
2023/03/30 03:22:38;;;;;;;0.00;0.00;;;;;;;8.10;100.00;99094.75;6243834;22;20004;-76
2023/03/30 03:25:04;;;;;;;0.00;0.00;;;;;;;8.01;100.00;99080.13;6239893;22;20073;-77
2023/03/30 03:27:30;;;;;;;0.00;0.00;;;;;;;8.10;100.00;99094.75;6216187;22;20003;-77
2023/03/30 03:29:56;;;;;;;0.00;0.00;;;;;;;8.19;100.00;99098.53;6241117;22;20008;-77
2023/03/30 03:32:22;;;;;;;0.00;0.00;;;;;;;8.28;100.00;99096.03;6244068;22;20010;-77
2023/03/30 03:34:48;;;;;;;0.00;0.00;;;;;;;8.19;100.00;99076.75;6214604;22;20012;-77
2023/03/30 03:37:15;;;;;;;0.00;0.00;;;;;;;8.32;100.00;99093.53;6267089;22;19999;-77
2023/03/30 03:39:41;;;;;;;0.00;0.00;;;;;;;8.37;100.00;99088.88;6267096;22;20749;-77
2023/03/30 03:42:06;;;;;;;0.00;0.00;;;;;;;8.38;100.00;99086.94;6242569;22;20014;-78
2023/03/30 03:44:32;;;;;;;0.00;0.00;;;;;;;8.33;100.00;99092.44;6243407;22;20014;-77
2023/03/30 03:46:58;;;;;;;0.00;0.00;;;;;;;8.20;100.00;99083.81;6218541;22;20341;-76
2023/03/30 03:49:23;;;;;;;0.00;0.00;;;;;;;8.12;100.00;99092.59;6211598;22;20082;-76
2023/03/30 03:51:48;;;;;;;0.00;0.00;;;;;;;8.05;100.00;99086.66;6213770;22;20004;-76
2023/03/30 03:54:14;;;;;;;0.00;0.00;;;;;;;8.03;100.00;99080.66;6215554;22;20553;-76
2023/03/30 03:56:39;;;;;;;0.00;0.00;;;;;;;8.06;100.00;99085.56;6216623;22;20012;-77
2023/03/30 03:59:05;;;;;;;0.00;0.00;;;;;;;8.02;100.00;99076.31;6236743;22;20422;-77
2023/03/30 04:01:31;;;;;;;0.00;0.00;;;;;;;8.07;100.00;99095.34;6239464;22;20012;-77
2023/03/30 04:03:57;;;;;;;0.00;0.00;;;;;;;7.98;100.00;99083.41;6262576;22;20395;-76
2023/03/30 04:06:25;;;;;;;0.00;0.00;;;;;;;7.91;100.00;99080.19;6243660;22;20011;-76
2023/03/30 04:08:50;;;;;;;0.10;0.10;;;;;;;7.99;100.00;99099.47;6240804;22;20457;-76
2023/03/30 04:11:16;;;;;;;0.00;0.00;;;;;;;8.03;100.00;99099.72;6214353;22;20028;-77
2023/03/30 04:13:42;;;;;;;0.00;0.00;;;;;;;8.14;100.00;99101.28;6218304;22;20024;-77
2023/03/30 04:16:08;;;;;;;0.00;0.00;;;;;;;8.13;100.00;99086.06;6266865;22;20007;-76
2023/03/30 04:18:34;;;;;;;0.00;0.00;;;;;;;8.16;100.00;99103.72;6244326;22;20007;-76
2023/03/30 04:21:01;;;;;;;0.00;0.00;;;;;;;8.26;100.00;99116.47;6240202;22;20012;-77
2023/03/30 04:23:35;;;;;;;0.00;0.00;;;;;;;8.25;100.00;99103.94;6268347;22;20414;-77
2023/03/30 04:26:06;;;;;;;0.00;0.00;;;;;;;8.38;100.00;99106.00;6269673;22;20023;-76
2023/03/30 04:28:35;;;;;;;0.00;0.00;;;;;;;8.38;100.00;99111.47;6218939;22;20828;-77
2023/03/30 04:31:03;;;;;;;0.00;0.00;;;;;;;8.37;100.00;99107.94;6241602;22;20000;-77
2023/03/30 04:33:29;;;;;;;0.00;0.00;;;;;;;8.29;100.00;99107.72;6241090;22;20027;-76
2023/03/30 04:35:54;;;;;;;0.00;0.00;;;;;;;8.26;100.00;99102.84;6244032;22;20004;-76
2023/03/30 04:38:23;;;;;;;0.00;0.00;;;;;;;8.25;100.00;99107.50;6240169;22;20007;-76
2023/03/30 04:40:50;;;;;;;0.00;0.00;;;;;;;8.30;100.00;99098.47;6271822;22;20004;-75
2023/03/30 04:43:20;;;;;;;0.00;0.00;;;;;;;8.34;100.00;99094.09;6213706;22;20066;-76
2023/03/30 04:45:53;;;;;;;0.00;0.00;;;;;;;8.38;100.00;99111.47;6218497;22;20007;-76
2023/03/30 04:48:20;;;;;;;0.00;0.00;;;;;;;8.43;100.00;99107.91;6240611;22;20008;-76
2023/03/30 04:50:48;;;;;;;0.00;0.00;;;;;;;8.48;100.00;99110.63;6270386;22;20004;-76
2023/03/30 04:53:14;;;;;;;0.00;0.00;;;;;;;8.51;100.00;99110.03;6243512;22;20010;-77
2023/03/30 04:55:40;;;;;;;0.00;0.00;;;;;;;8.43;100.00;99107.91;6213139;22;20090;-77
2023/03/30 04:58:06;;;;;;;0.00;0.00;;;;;;;8.40;100.00;99109.28;6219703;22;20085;-77
2023/03/30 05:00:32;;;;;;;0.00;0.00;;;;;;;8.36;100.00;99100.06;6239764;22;20052;-77
2023/03/30 05:02:58;;;;;;;0.00;0.00;;;;;;;8.39;100.00;99104.94;6271490;22;20077;-77
2023/03/30 05:05:26;;;;;;;0.00;0.00;;;;;;;8.36;100.00;99113.66;6240058;22;20007;-77
2023/03/30 05:07:52;;;;;;;0.00;0.00;;;;;;;8.38;100.00;99111.47;6242831;22;20668;-77
2023/03/30 05:10:20;;;;;;;0.00;0.00;;;;;;;8.35;100.00;99117.47;6219029;22;20003;-77
2023/03/30 05:12:46;;;;;;;0.00;0.00;;;;;;;8.38;100.00;99111.47;6264218;22;20008;-77
2023/03/30 05:15:11;;;;;;;0.00;0.00;;;;;;;8.34;100.00;99124.03;6273517;22;20384;-77
2023/03/30 05:17:37;;;;;;;0.00;0.00;;;;;;;8.27;100.00;99109.94;6268586;22;20027;-77
2023/03/30 05:20:07;;;;;;;0.00;0.00;;;;;;;8.29;100.00;99113.16;6272000;22;20010;-77
2023/03/30 05:22:33;;;;;;;0.00;0.00;;;;;;;8.33;100.00;99130.59;6215550;22;20015;-77
2023/03/30 05:24:59;;;;;;;0.00;0.00;;;;;;;8.37;100.00;99118.84;6245913;22;20000;-77
2023/03/30 05:27:25;;;;;;;0.00;0.00;;;;;;;8.37;100.00;99112.59;6242480;22;20018;-77
2023/03/30 05:29:51;;;;;;;0.00;0.00;;;;;;;8.41;100.00;99132.72;6269631;22;20061;-77
2023/03/30 05:32:16;;;;;;;0.00;0.00;;;;;;;8.37;100.00;99134.38;6219992;22;20000;-77
2023/03/30 05:34:45;;;;;;;0.00;0.00;;;;;;;8.50;100.00;99158.28;6215796;22;20034;-77
2023/03/30 05:37:11;;;;;;;0.00;0.00;;;;;;;8.58;100.00;99143.22;6243850;22;20007;-78
2023/03/30 05:39:36;;;;;;;0.00;0.00;;;;;;;8.73;100.00;99155.91;6215856;22;20123;-76
2023/03/30 05:42:02;;;;;;;0.10;0.10;;;;;;;8.79;100.00;99152.06;6245005;22;20692;-77
2023/03/30 05:44:31;;;;;;;0.00;0.00;;;;;;;8.80;100.00;99145.50;6270805;22;20007;-76
2023/03/30 05:46:58;;;;;;;0.00;0.00;;;;;;;8.79;100.00;99157.53;6218003;22;20086;-76
2023/03/30 05:49:24;;;;;;;0.00;0.00;;;;;;;8.78;100.00;99152.38;6221385;22;20350;-78
2023/03/30 05:51:50;;;;;;;0.00;0.00;;;;;;;8.84;100.00;99151.22;6237375;22;20018;-75
2023/03/30 05:54:15;;;;;;;0.00;0.00;;;;;;;8.86;100.00;99159.91;6242862;22;20010;-75
2023/03/30 05:56:41;;;;;;;0.00;0.00;;;;;;;8.83;100.00;99155.03;6246781;22;20015;-76
2023/03/30 05:59:08;;;;;;;0.00;0.00;;;;;;;8.82;100.00;99154.22;6239613;22;20439;-75
2023/03/30 06:01:33;;;;;;;0.00;0.00;;;;;;;8.97;100.00;99171.56;6272032;22;20000;-76
2023/03/30 06:03:59;;;;;;;0.00;0.00;;;;;;;8.94;100.00;99166.69;6268808;22;20058;-76
2023/03/30 06:06:25;;;;;;;0.00;0.00;;;;;;;9.12;100.00;99179.59;6217488;22;20003;-76
2023/03/30 06:08:51;;;;;;;0.00;0.00;;;;;;;9.21;100.00;99183.34;6242787;22;20003;-78
2023/03/30 06:11:26;;;;;;;0.00;0.00;;;;;;;9.16;100.00;99164.28;6242199;22;20015;-76
2023/03/30 06:13:51;;;;;;;0.00;0.00;;;;;;;9.26;100.00;99180.53;6243071;22;20308;-77
2023/03/30 06:16:17;;;;;;;0.00;0.00;;;;;;;9.37;100.00;99191.34;6243594;22;20014;-77
2023/03/30 06:18:44;;;;;;;0.00;0.00;;;;;;;9.44;100.00;99183.66;6246220;22;20008;-76
2023/03/30 06:21:10;;;;;;;0.00;0.00;;;;;;;9.58;100.00;99197.44;6239625;22;20038;-77
2023/03/30 06:23:36;;;;;;;0.00;0.00;;;;;;;9.60;100.00;99206.94;6242396;22;20605;-76
2023/03/30 06:26:03;;;;;;;0.00;0.00;;;;;;;9.60;100.00;99200.69;6218517;22;20086;-77
2023/03/30 06:28:29;;;;;;;0.00;0.00;;;;;;;9.65;100.00;99208.00;6212751;22;20000;-75
2023/03/30 06:31:06;;;;;;;0.00;0.00;;;;;;;9.61;100.00;99213.22;6242570;22;20304;-77
2023/03/30 06:33:33;;;;;;;0.00;0.00;;;;;;;9.63;100.00;99188.38;6241929;22;20052;-76
2023/03/30 06:35:59;;;;;;;0.00;0.00;;;;;;;9.69;100.00;99193.47;6242540;22;20003;-77
2023/03/30 06:38:24;;;;;;;0.00;0.00;;;;;;;9.65;100.00;99180.69;6240778;22;20415;-77
2023/03/30 06:40:50;;;;;;;0.00;0.00;;;;;;;9.65;100.00;99186.16;6219045;22;20011;-76
2023/03/30 06:43:21;;;;;;;0.00;0.00;;;;;;;9.82;100.00;99207.53;6217151;22;20011;-76
2023/03/30 06:45:54;;;;;;;0.00;0.00;;;;;;;9.84;100.00;99211.63;6271830;22;20003;-78
2023/03/30 06:48:22;;;;;;;0.00;0.00;;;;;;;9.87;100.00;99205.56;6242766;22;20511;-77
2023/03/30 06:50:53;;;;;;;0.00;0.00;;;;;;;9.91;100.00;99217.50;6244834;22;20026;-77
2023/03/30 06:53:21;;;;;;;0.05;0.05;;;;;;;10.03;100.00;99219.84;6271108;22;20003;-76
2023/03/30 06:55:55;;;;;;;0.00;0.00;;;;;;;10.07;100.00;99214.59;6239813;22;20076;-77
2023/03/30 06:58:21;;;;;;;0.00;0.00;;;;;;;10.08;100.00;99227.16;6244673;22;19995;-82
2023/03/30 07:00:46;;;;;;;0.00;0.00;;;;;;;10.06;100.00;99218.44;6265610;22;20053;-79
2023/03/30 07:03:12;;;;;;;0.00;0.00;;;;;;;10.06;100.00;99213.81;6218713;22;20012;-77
2023/03/30 07:05:38;;;;;;;0.00;0.00;;;;;;;10.15;100.00;99233.09;6237917;22;20076;-76
2023/03/30 07:08:05;;;;;;;0.00;0.00;;;;;;;10.25;100.00;99232.97;6243807;22;20410;-78
2023/03/30 07:10:47;;;;;;;0.00;0.00;;;;;;;10.23;100.00;99240.63;6216491;22;19995;-77
2023/03/30 07:13:21;;;;;;;0.00;0.00;;;;;;;10.11;100.00;99238.31;6248941;22;20082;-78
2023/03/30 07:15:46;;;;;;;0.00;0.00;;;;;;;10.23;100.00;99234.34;6233026;22;20054;-77
2023/03/30 07:18:14;;;;;;;0.00;0.00;;;;;;;10.45;100.00;99242.03;6240990;22;20008;-76
2023/03/30 07:20:40;;;;;;;0.00;0.00;;;;;;;10.67;100.00;99232.44;6237044;23;20011;-77
2023/03/30 07:23:15;;;;;;;0.00;0.00;;;;;;;11.07;100.00;99252.06;6212736;23;20008;-77
2023/03/30 07:25:42;;;;;;;0.00;0.00;;;;;;;11.18;100.00;99242.56;6239763;23;20016;-76
2023/03/30 07:28:08;;;;;;;0.00;0.00;;;;;;;11.41;100.00;99256.44;6237205;23;20009;-76
2023/03/30 07:30:35;;;;;;;0.00;0.00;;;;;;;11.41;99.69;99273.66;6240252;23;20430;-76
2023/03/30 07:33:00;;;;;;;0.00;0.00;;;;;;;11.26;100.00;99239.16;6234274;23;20004;-75
2023/03/30 07:35:26;;;;;;;0.00;0.00;;;;;;;11.24;99.09;99255.06;6240558;22;20011;-76
2023/03/30 07:37:52;;;;;;;0.00;0.00;;;;;;;11.51;99.78;99264.47;6209649;23;20402;-76
2023/03/30 07:40:18;;;;;;;0.00;0.00;;;;;;;11.79;97.70;99264.53;6235944;23;20399;-75
2023/03/30 07:42:44;;;;;;;0.00;0.00;;;;;;;11.66;97.71;99260.66;6236222;23;20012;-75
2023/03/30 07:45:13;;;;;;;0.00;0.00;;;;;;;11.69;97.79;99274.53;6237520;23;20012;-75
2023/03/30 07:47:39;;;;;;;0.00;0.00;;;;;;;11.47;97.88;99261.50;6212153;23;20015;-76
2023/03/30 07:50:27;;;;;;;0.00;0.00;;;;;;;10.91;100.00;99260.50;6223321;23;20813;-74
2023/03/30 07:52:51;;;;;;;0.00;0.00;;;;;;;10.58;100.00;99274.09;6235966;22;20004;-74
2023/03/30 07:55:17;;;;;;;0.00;0.00;;;;;;;10.38;100.00;99266.16;6207746;23;20050;-74
2023/03/30 07:57:43;;;;;;;0.00;0.00;;;;;;;10.35;100.00;99266.75;6210433;23;20019;-74
2023/03/30 08:00:09;;;;;;;0.00;0.00;;;;;;;10.52;100.00;99269.00;6186467;23;20414;-74
2023/03/30 08:02:36;;;;;;;0.00;0.00;;;;;;;10.54;100.00;99273.06;6231821;23;20003;-74
2023/03/30 08:05:01;;;;;;;0.00;0.00;;;;;;;10.62;100.00;99291.53;6239500;23;20837;-74
2023/03/30 08:07:27;;;;;;;0.00;0.00;;;;;;;10.60;100.00;99279.25;6231210;23;20008;-74
2023/03/30 08:09:53;;;;;;;0.00;0.00;;;;;;;10.60;100.00;99288.28;6214863;23;20011;-74
2023/03/30 08:12:28;;;;;;;0.00;0.00;;;;;;;10.57;100.00;99283.41;6232437;23;20014;-74
2023/03/30 08:14:54;;;;;;;0.00;0.00;;;;;;;11.30;100.00;99292.19;6257364;22;20042;-75
2023/03/30 08:17:20;;;;;;;0.00;0.00;;;;;;;11.56;100.00;99291.75;6238372;22;20003;-75
2023/03/30 08:19:46;;;;;;;0.00;0.00;;;;;;;11.59;100.00;99288.41;6243575;22;20004;-75
2023/03/30 08:22:11;;;;;;;0.00;0.00;;;;;;;11.57;100.00;99290.66;6241705;22;19999;-75
2023/03/30 08:24:36;;;;;;;0.00;0.00;;;;;;;11.31;100.00;99274.63;6215930;22;20014;-75
2023/03/30 08:27:02;;;;;;;0.00;0.00;;;;;;;11.28;100.00;99290.84;6269704;22;20003;-76
2023/03/30 08:29:30;;;;;;;0.00;0.00;;;;;;;11.52;100.00;99291.56;6239851;22;20008;-75
2023/03/30 08:31:56;;;;;;;0.00;0.00;;;;;;;12.05;100.00;99305.97;6217669;22;20004;-75
2023/03/30 08:34:22;;;;;;;0.00;0.00;;;;;;;12.32;100.00;99296.94;6213185;22;20018;-76
2023/03/30 08:36:47;;;;;;;0.00;0.00;;;;;;;12.89;99.52;99301.22;6244017;22;20011;-76
2023/03/30 08:39:15;;;;;;;0.00;0.00;;;;;;;13.54;97.12;99321.97;6243960;22;20011;-76
2023/03/30 08:41:56;;;;;;;0.00;0.00;;;;;;;14.04;88.39;99348.44;6214074;22;20380;-76
2023/03/30 08:44:45;;;;;;;0.00;0.00;;;;;;;14.28;88.10;99298.59;6242830;22;20011;-76
2023/03/30 08:47:15;;;;;;;0.00;0.00;;;;;;;14.81;82.24;99305.06;6271228;22;20382;-76
2023/03/30 08:49:59;;;;;;;0.00;0.00;;;;;;;15.84;80.63;99315.56;6241820;22;19999;-76
2023/03/30 08:52:25;;;;;;;0.00;0.00;;;;;;;17.31;77.41;99310.72;6246794;22;20014;-76
2023/03/30 08:54:57;;;;;;;0.00;0.00;;;;;;;17.79;68.87;99325.84;6270234;22;20330;-75
2023/03/30 08:57:50;;;;;;;0.00;0.00;;;;;;;17.26;72.78;99314.50;6242012;22;19999;-75
2023/03/30 09:00:35;;;;;;;0.00;0.00;;;;;;;17.29;72.43;99311.06;6269328;22;20300;-76
2023/03/30 09:03:13;;;;;;;0.00;0.00;;;;;;;17.56;67.80;99312.41;6243393;22;20000;-76
2023/03/30 09:05:58;;;;;;;0.00;0.00;;;;;;;17.47;66.11;99308.94;6242137;22;20087;-76
2023/03/30 09:08:28;;;;;;;0.00;0.00;;;;;;;16.41;70.12;99319.06;6245813;22;20014;-75
2023/03/30 09:10:59;;;;;;;0.00;0.00;;;;;;;15.75;71.51;99324.94;6239319;22;20003;-75
2023/03/30 09:13:40;;;;;;;0.00;0.00;;;;;;;14.96;74.40;99305.72;6220429;22;20436;-75
2023/03/30 09:16:32;;;;;;;0.00;0.00;;;;;;;14.27;77.84;99312.66;6266247;22;20053;-76
2023/03/30 09:19:03;;;;;;;0.00;0.00;;;;;;;13.73;80.38;99316.28;6268482;22;20023;-76
2023/03/30 09:21:32;;;;;;;0.00;0.00;;;;;;;13.51;81.70;99327.28;6269354;22;20000;-76
2023/03/30 09:24:00;;;;;;;0.10;0.10;;;;;;;13.34;82.08;99309.53;6218628;22;20550;-75
2023/03/30 09:26:44;;;;;;;0.00;0.00;;;;;;;13.75;82.64;99325.00;6241029;22;20007;-76
2023/03/30 09:29:23;;;;;;;;;;;;;;;;;;;;;
2023/03/30 09:32:06;;;;;;;0.00;0.00;;;;;;;14.45;75.18;99324.53;6272829;22;20075;-76
2023/03/30 09:34:44;;;;;;;0.00;0.00;;;;;;;14.69;75.00;99329.66;6237954;22;20478;-76
2023/03/30 09:37:12;;;;;;;0.00;0.00;;;;;;;14.92;74.51;99337.75;6246015;22;20007;-76
2023/03/30 09:39:40;;;;;;;0.00;0.00;;;;;;;16.29;71.50;99344.59;6241073;22;20004;-77
2023/03/30 09:42:34;;;;;;;0.00;0.00;;;;;;;17.07;64.46;99340.63;6244440;22;20010;-77
2023/03/30 09:45:10;;;;;;;0.00;0.00;;;;;;;15.98;66.86;99342.13;6244298;22;20086;-77
2023/03/30 09:47:41;;;;;;;0.00;0.00;;;;;;;15.10;70.61;99339.41;6267029;22;20074;-77
2023/03/30 09:50:16;;;;;;;0.00;0.00;;;;;;;14.61;72.70;99333.97;6271230;22;20061;-80
2023/03/30 09:53:19;;;;;;;0.00;0.00;;;;;;;14.40;75.45;99335.69;6271272;22;20557;-80
2023/03/30 09:56:00;;;;;;;0.00;0.00;;;;;;;16.09;68.99;99362.69;6219532;22;20008;-78
2023/03/30 09:58:35;;;;;;;0.00;0.00;;;;;;;15.84;68.69;99343.13;6268612;22;20309;-78
2023/03/30 10:01:07;;;;;;;0.00;0.00;;;;;;;16.76;65.84;99335.44;6272499;22;19996;-76
2023/03/30 10:03:35;;;;;;;0.00;0.00;;;;;;;16.35;63.90;99336.94;6246959;22;19999;-79
2023/03/30 10:06:11;;;;;;;0.00;0.00;;;;;;;16.12;67.88;99345.47;6242469;22;20359;-77
2023/03/30 10:09:04;;;;;;;0.00;0.00;;;;;;;17.20;65.73;99344.28;6246483;22;20039;-78
2023/03/30 10:11:37;;;;;;;0.00;0.00;;;;;;;18.01;61.73;99354.28;6248041;22;20008;-78
2023/03/30 10:14:04;;;;;;;0.00;0.00;;;;;;;18.78;57.67;99337.06;6241158;22;20165;-76
2023/03/30 10:16:32;;;;;;;0.00;0.00;;;;;;;19.30;55.70;99347.38;6246500;22;19999;-76
2023/03/30 10:19:03;;;;;;;0.00;0.00;;;;;;;19.15;56.96;99354.44;6241885;22;20496;-77
2023/03/30 10:21:35;;;;;;;0.00;0.00;;;;;;;21.71;50.37;99346.13;6242978;22;20011;-77
2023/03/30 10:24:03;;;;;;;0.00;0.00;;;;;;;20.40;50.20;99361.84;6243368;22;20322;-76
2023/03/30 10:26:30;;;;;;;0.00;0.00;;;;;;;21.01;51.62;99345.03;6242868;22;20322;-76
2023/03/30 10:29:01;;;;;;;0.00;0.00;;;;;;;24.34;42.92;99350.72;6247808;22;20354;-75
2023/03/30 10:31:27;;;;;;;0.00;0.00;;;;;;;25.93;40.34;99335.66;6242028;22;20019;-76
2023/03/30 10:33:56;;;;;;;0.00;0.00;;;;;;;28.70;36.17;99339.59;6218472;22;20011;-78
2023/03/30 10:36:31;;;;;;;0.00;0.00;;;;;;;30.36;30.45;99331.91;6265393;22;19999;-77
2023/03/30 10:39:05;;;;;;;;;;;;;;;30.83;30.41;99341.59;6270476;22;20012;-78
2023/03/30 10:41:30;;;;;;;0.00;0.00;;;;;;;31.15;27.99;99347.44;6241194;22;20245;-78
2023/03/30 10:44:25;;;;;;;0.00;0.00;;;;;;;30.74;28.26;99328.84;6241274;22;20316;-77
2023/03/30 10:46:58;;;;;;;0.00;0.00;;;;;;;29.11;29.63;99340.78;6241542;22;20014;-77
2023/03/30 10:50:02;;;;;;;0.00;0.00;;;;;;;24.90;36.56;99334.81;6268978;22;19996;-77
2023/03/30 10:52:54;;;;;;;0.00;0.00;;;;;;;21.99;41.32;99326.41;6237363;22;20007;-77
2023/03/30 10:55:35;;;;;;;0.00;0.00;;;;;;;19.55;46.91;99338.94;6266541;22;20471;-80
2023/03/30 10:58:17;;;;;;;0.00;0.00;;;;;;;19.08;51.40;99334.81;6272367;22;20000;-78
2023/03/30 11:00:54;;;;;;;0.00;0.00;;;;;;;19.33;48.95;99326.44;6267454;22;20008;-78
2023/03/30 11:03:26;;;;;;;0.00;0.00;;;;;;;18.51;51.83;99339.34;6246939;22;20014;-78
2023/03/30 11:05:55;;;;;;;0.00;0.00;;;;;;;20.86;49.13;99335.59;6239905;22;20007;-78
2023/03/30 11:08:49;;;;;;;0.00;0.00;;;;;;;22.28;44.67;99318.53;6245252;22;20011;-78
2023/03/30 11:11:21;;;;;;;0.00;0.00;;;;;;;26.34;36.14;99330.91;6270114;22;20430;-76
2023/03/30 11:14:03;;;;;;;0.00;0.00;;;;;;;28.58;32.72;99345.69;6244394;22;20425;-76
2023/03/30 11:16:56;;;;;;;0.00;0.00;;;;;;;26.02;34.64;99337.28;6239905;22;20374;-77
2023/03/30 11:19:30;;;;;;;0.00;0.00;;;;;;;23.65;38.33;99331.66;6240821;22;20319;-77
2023/03/30 11:22:13;;;;;;;0.00;0.00;;;;;;;23.27;40.63;99339.16;6268985;22;20004;-77
2023/03/30 11:24:42;;;;;;;0.00;0.00;;;;;;;23.03;40.34;99335.63;6271606;22;20074;-77
2023/03/30 11:27:33;;;;;;;0.00;0.00;;;;;;;20.49;44.64;99344.22;6237861;22;19999;-77
2023/03/30 11:30:19;;;;;;;0.00;0.00;;;;;;;18.69;49.77;99328.88;6241121;22;20507;-76
2023/03/30 11:33:06;;;;;;;0.00;0.00;;;;;;;17.14;57.56;99339.28;6241382;22;20086;-77
2023/03/30 11:35:43;;;;;;;0.00;0.00;;;;;;;15.50;65.02;99328.22;6268103;22;20009;-77
2023/03/30 11:38:16;;;;;;;0.00;0.00;;;;;;;14.35;73.57;99333.84;6245319;22;20003;-76
2023/03/30 11:40:45;;;;;;;0.00;0.00;;;;;;;13.03;84.21;99332.19;6239212;22;20082;-76
2023/03/30 11:43:33;;;;;;;;;;;;;;;;;;;;;
2023/03/30 11:46:10;;;;;;;0.00;0.00;;;;;;;13.23;96.03;99343.84;6266775;22;20871;-77
2023/03/30 11:49:06;;;;;;;0.00;0.00;;;;;;;14.51;94.54;99323.25;6245693;22;20007;-75
2023/03/30 11:51:49;;;;;;;0.00;0.00;;;;;;;17.36;74.37;99330.66;6244055;22;19995;-74
2023/03/30 11:54:37;;;;;;;0.00;0.00;;;;;;;15.88;75.60;99323.97;6268195;22;20003;-75
2023/03/30 11:57:40;;;;;;;0.00;0.00;;;;;;;14.08;84.22;99329.41;6240622;22;20030;-77